sensor_id;sensor_type;location;lat;lon;timestamp;temperature;humidity
19060;DHT22;9663;48.996;8.334;2023-07-02T00:01:46;20.20;60.50
19060;DHT22;9663;48.996;8.334;2023-07-02T00:04:13;20.20;60.60
19060;DHT22;9663;48.996;8.334;2023-07-02T00:06:44;20.30;60.80
19060;DHT22;9663;48.996;8.334;2023-07-02T00:09:13;20.30;61.00
19060;DHT22;9663;48.996;8.334;2023-07-02T00:11:43;20.30;60.80
19060;DHT22;9663;48.996;8.334;2023-07-02T00:14:12;20.30;61.00
19060;DHT22;9663;48.996;8.334;2023-07-02T00:16:45;20.30;60.80
19060;DHT22;9663;48.996;8.334;2023-07-02T00:19:13;20.30;60.80
19060;DHT22;9663;48.996;8.334;2023-07-02T00:21:39;20.30;60.90
19060;DHT22;9663;48.996;8.334;2023-07-02T00:24:06;20.30;61.00
19060;DHT22;9663;48.996;8.334;2023-07-02T00:26:34;20.30;61.00
19060;DHT22;9663;48.996;8.334;2023-07-02T00:29:01;20.30;61.00
19060;DHT22;9663;48.996;8.334;2023-07-02T00:31:29;20.30;61.10
19060;DHT22;9663;48.996;8.334;2023-07-02T00:33:55;20.30;61.10
19060;DHT22;9663;48.996;8.334;2023-07-02T00:36:21;20.30;61.20
19060;DHT22;9663;48.996;8.334;2023-07-02T00:38:48;20.30;61.20
19060;DHT22;9663;48.996;8.334;2023-07-02T00:41:15;20.30;61.50
19060;DHT22;9663;48.996;8.334;2023-07-02T00:43:41;20.40;61.40
19060;DHT22;9663;48.996;8.334;2023-07-02T00:46:17;20.40;61.50
19060;DHT22;9663;48.996;8.334;2023-07-02T00:48:55;20.40;62.10
19060;DHT22;9663;48.996;8.334;2023-07-02T00:53:56;20.40;61.50
19060;DHT22;9663;48.996;8.334;2023-07-02T00:56:24;20.40;62.00
19060;DHT22;9663;48.996;8.334;2023-07-02T00:58:53;20.40;61.50
19060;DHT22;9663;48.996;8.334;2023-07-02T01:01:21;20.40;61.70
19060;DHT22;9663;48.996;8.334;2023-07-02T01:03:58;20.40;61.70
19060;DHT22;9663;48.996;8.334;2023-07-02T01:06:27;20.40;62.10
19060;DHT22;9663;48.996;8.334;2023-07-02T01:08:56;20.50;61.90
19060;DHT22;9663;48.996;8.334;2023-07-02T01:11:25;20.50;62.00
19060;DHT22;9663;48.996;8.334;2023-07-02T01:14:10;20.50;62.10
19060;DHT22;9663;48.996;8.334;2023-07-02T01:16:41;20.50;62.90
19060;DHT22;9663;48.996;8.334;2023-07-02T01:19:16;20.60;62.10
19060;DHT22;9663;48.996;8.334;2023-07-02T01:21:45;20.50;62.30
19060;DHT22;9663;48.996;8.334;2023-07-02T01:24:13;20.60;62.00
19060;DHT22;9663;48.996;8.334;2023-07-02T01:26:39;20.60;62.00
19060;DHT22;9663;48.996;8.334;2023-07-02T01:29:19;20.60;62.00
19060;DHT22;9663;48.996;8.334;2023-07-02T01:31:46;20.50;62.70
19060;DHT22;9663;48.996;8.334;2023-07-02T01:34:13;20.50;61.90
19060;DHT22;9663;48.996;8.334;2023-07-02T01:36:40;20.60;62.10
19060;DHT22;9663;48.996;8.334;2023-07-02T01:39:06;20.50;62.10
19060;DHT22;9663;48.996;8.334;2023-07-02T01:41:50;20.50;62.20
19060;DHT22;9663;48.996;8.334;2023-07-02T01:44:17;20.50;62.70
19060;DHT22;9663;48.996;8.334;2023-07-02T01:46:44;20.50;62.30
19060;DHT22;9663;48.996;8.334;2023-07-02T01:49:17;20.50;62.50
19060;DHT22;9663;48.996;8.334;2023-07-02T01:52:02;20.40;62.10
19060;DHT22;9663;48.996;8.334;2023-07-02T01:54:28;20.40;62.80
19060;DHT22;9663;48.996;8.334;2023-07-02T01:56:55;20.40;61.90
19060;DHT22;9663;48.996;8.334;2023-07-02T01:59:22;20.40;61.70
19060;DHT22;9663;48.996;8.334;2023-07-02T02:01:47;20.40;61.50
19060;DHT22;9663;48.996;8.334;2023-07-02T02:04:13;20.30;61.40
19060;DHT22;9663;48.996;8.334;2023-07-02T02:06:40;20.30;61.40
19060;DHT22;9663;48.996;8.334;2023-07-02T02:09:07;20.30;61.60
19060;DHT22;9663;48.996;8.334;2023-07-02T02:11:38;20.30;61.70
19060;DHT22;9663;48.996;8.334;2023-07-02T02:14:05;20.20;61.60
19060;DHT22;9663;48.996;8.334;2023-07-02T02:16:31;20.20;61.60
19060;DHT22;9663;48.996;8.334;2023-07-02T02:18:59;20.20;61.70
19060;DHT22;9663;48.996;8.334;2023-07-02T02:21:26;20.20;61.70
19060;DHT22;9663;48.996;8.334;2023-07-02T02:23:52;20.10;61.50
19060;DHT22;9663;48.996;8.334;2023-07-02T02:26:18;20.10;61.60
19060;DHT22;9663;48.996;8.334;2023-07-02T02:28:46;20.10;62.40
19060;DHT22;9663;48.996;8.334;2023-07-02T02:31:12;20.10;61.60
19060;DHT22;9663;48.996;8.334;2023-07-02T02:33:38;20.00;61.60
19060;DHT22;9663;48.996;8.334;2023-07-02T02:36:04;20.00;61.70
19060;DHT22;9663;48.996;8.334;2023-07-02T02:38:29;20.00;61.70
19060;DHT22;9663;48.996;8.334;2023-07-02T02:40:55;19.90;61.70
19060;DHT22;9663;48.996;8.334;2023-07-02T02:43:21;19.90;61.70
19060;DHT22;9663;48.996;8.334;2023-07-02T02:45:47;19.90;61.70
19060;DHT22;9663;48.996;8.334;2023-07-02T02:48:13;19.90;61.70
19060;DHT22;9663;48.996;8.334;2023-07-02T02:50:39;19.90;61.80
19060;DHT22;9663;48.996;8.334;2023-07-02T02:53:09;19.90;61.80
19060;DHT22;9663;48.996;8.334;2023-07-02T02:55:36;19.80;61.70
19060;DHT22;9663;48.996;8.334;2023-07-02T02:58:03;19.80;61.70
19060;DHT22;9663;48.996;8.334;2023-07-02T03:00:29;19.80;61.80
19060;DHT22;9663;48.996;8.334;2023-07-02T03:02:55;19.80;61.90
19060;DHT22;9663;48.996;8.334;2023-07-02T03:05:21;19.80;62.00
19060;DHT22;9663;48.996;8.334;2023-07-02T03:07:47;19.70;61.90
19060;DHT22;9663;48.996;8.334;2023-07-02T03:10:13;19.70;62.00
19060;DHT22;9663;48.996;8.334;2023-07-02T03:12:39;19.80;62.00
19060;DHT22;9663;48.996;8.334;2023-07-02T03:15:05;19.70;61.90
19060;DHT22;9663;48.996;8.334;2023-07-02T03:17:31;19.70;61.90
19060;DHT22;9663;48.996;8.334;2023-07-02T03:19:57;19.70;61.90
19060;DHT22;9663;48.996;8.334;2023-07-02T03:22:22;19.70;61.90
19060;DHT22;9663;48.996;8.334;2023-07-02T03:24:48;19.70;61.90
19060;DHT22;9663;48.996;8.334;2023-07-02T03:27:14;19.70;62.00
19060;DHT22;9663;48.996;8.334;2023-07-02T03:29:39;19.70;62.00
19060;DHT22;9663;48.996;8.334;2023-07-02T03:32:05;19.70;62.00
19060;DHT22;9663;48.996;8.334;2023-07-02T03:34:31;19.70;62.00
19060;DHT22;9663;48.996;8.334;2023-07-02T03:36:57;19.70;62.00
19060;DHT22;9663;48.996;8.334;2023-07-02T03:39:22;19.60;62.00
19060;DHT22;9663;48.996;8.334;2023-07-02T03:41:48;19.70;62.00
19060;DHT22;9663;48.996;8.334;2023-07-02T03:44:14;19.60;62.00
19060;DHT22;9663;48.996;8.334;2023-07-02T03:46:39;19.60;62.00
19060;DHT22;9663;48.996;8.334;2023-07-02T03:49:05;19.60;62.10
19060;DHT22;9663;48.996;8.334;2023-07-02T03:51:32;19.60;62.10
19060;DHT22;9663;48.996;8.334;2023-07-02T03:54:00;19.60;62.10
19060;DHT22;9663;48.996;8.334;2023-07-02T03:56:26;19.60;62.30
19060;DHT22;9663;48.996;8.334;2023-07-02T03:58:52;19.60;62.20
19060;DHT22;9663;48.996;8.334;2023-07-02T04:01:18;19.60;62.30
19060;DHT22;9663;48.996;8.334;2023-07-02T04:03:48;19.60;62.30
19060;DHT22;9663;48.996;8.334;2023-07-02T04:06:15;19.60;62.50
19060;DHT22;9663;48.996;8.334;2023-07-02T04:08:42;19.60;62.30
19060;DHT22;9663;48.996;8.334;2023-07-02T04:11:09;19.60;62.30
19060;DHT22;9663;48.996;8.334;2023-07-02T04:13:35;19.60;62.30
19060;DHT22;9663;48.996;8.334;2023-07-02T04:16:01;19.60;62.30
19060;DHT22;9663;48.996;8.334;2023-07-02T04:18:26;19.60;62.40
19060;DHT22;9663;48.996;8.334;2023-07-02T04:20:54;19.60;62.60
19060;DHT22;9663;48.996;8.334;2023-07-02T04:23:20;19.60;62.50
19060;DHT22;9663;48.996;8.334;2023-07-02T04:25:46;19.60;62.60
19060;DHT22;9663;48.996;8.334;2023-07-02T04:28:12;19.60;62.50
19060;DHT22;9663;48.996;8.334;2023-07-02T04:30:37;19.60;62.40
19060;DHT22;9663;48.996;8.334;2023-07-02T04:33:03;19.60;62.50
19060;DHT22;9663;48.996;8.334;2023-07-02T04:35:31;19.70;62.60
19060;DHT22;9663;48.996;8.334;2023-07-02T04:38:02;19.70;62.50
19060;DHT22;9663;48.996;8.334;2023-07-02T04:40:28;19.70;62.50
19060;DHT22;9663;48.996;8.334;2023-07-02T04:42:54;19.70;62.50
19060;DHT22;9663;48.996;8.334;2023-07-02T04:45:26;19.70;62.50
19060;DHT22;9663;48.996;8.334;2023-07-02T04:48:00;19.70;62.80
19060;DHT22;9663;48.996;8.334;2023-07-02T04:50:26;19.70;62.50
19060;DHT22;9663;48.996;8.334;2023-07-02T04:52:52;19.80;62.70
19060;DHT22;9663;48.996;8.334;2023-07-02T04:55:18;19.70;63.30
19060;DHT22;9663;48.996;8.334;2023-07-02T04:57:44;19.80;62.60
19060;DHT22;9663;48.996;8.334;2023-07-02T05:00:10;19.80;62.50
19060;DHT22;9663;48.996;8.334;2023-07-02T05:02:37;19.80;62.50
19060;DHT22;9663;48.996;8.334;2023-07-02T05:05:04;19.90;62.50
19060;DHT22;9663;48.996;8.334;2023-07-02T05:07:30;19.90;62.60
19060;DHT22;9663;48.996;8.334;2023-07-02T05:09:55;19.90;62.60
19060;DHT22;9663;48.996;8.334;2023-07-02T05:12:21;20.00;62.60
19060;DHT22;9663;48.996;8.334;2023-07-02T05:14:48;20.00;62.60
19060;DHT22;9663;48.996;8.334;2023-07-02T05:17:14;20.10;62.50
19060;DHT22;9663;48.996;8.334;2023-07-02T05:19:43;20.00;62.40
19060;DHT22;9663;48.996;8.334;2023-07-02T05:22:09;20.10;62.50
19060;DHT22;9663;48.996;8.334;2023-07-02T05:24:35;20.10;62.40
19060;DHT22;9663;48.996;8.334;2023-07-02T05:27:01;20.20;62.40
19060;DHT22;9663;48.996;8.334;2023-07-02T05:29:27;20.20;62.30
19060;DHT22;9663;48.996;8.334;2023-07-02T05:31:55;20.20;62.30
19060;DHT22;9663;48.996;8.334;2023-07-02T05:34:24;20.20;62.30
19060;DHT22;9663;48.996;8.334;2023-07-02T05:36:50;20.30;62.30
19060;DHT22;9663;48.996;8.334;2023-07-02T05:39:15;20.30;62.10
19060;DHT22;9663;48.996;8.334;2023-07-02T05:41:41;20.30;62.10
19060;DHT22;9663;48.996;8.334;2023-07-02T05:44:07;20.30;62.20
19060;DHT22;9663;48.996;8.334;2023-07-02T05:46:32;20.40;62.30
19060;DHT22;9663;48.996;8.334;2023-07-02T05:48:58;20.40;62.30
19060;DHT22;9663;48.996;8.334;2023-07-02T05:51:25;20.50;62.20
19060;DHT22;9663;48.996;8.334;2023-07-02T05:53:52;20.50;62.00
19060;DHT22;9663;48.996;8.334;2023-07-02T05:56:18;20.60;61.90
19060;DHT22;9663;48.996;8.334;2023-07-02T05:58:45;20.60;61.80
19060;DHT22;9663;48.996;8.334;2023-07-02T06:01:12;20.60;61.90
19060;DHT22;9663;48.996;8.334;2023-07-02T06:03:38;20.70;62.00
19060;DHT22;9663;48.996;8.334;2023-07-02T06:06:03;20.70;61.80
19060;DHT22;9663;48.996;8.334;2023-07-02T06:08:29;20.80;61.80
19060;DHT22;9663;48.996;8.334;2023-07-02T06:10:55;20.80;61.80
19060;DHT22;9663;48.996;8.334;2023-07-02T06:13:20;20.80;61.70
19060;DHT22;9663;48.996;8.334;2023-07-02T06:15:46;20.80;61.70
19060;DHT22;9663;48.996;8.334;2023-07-02T06:18:12;20.90;61.70
19060;DHT22;9663;48.996;8.334;2023-07-02T06:20:38;20.90;61.60
19060;DHT22;9663;48.996;8.334;2023-07-02T06:23:04;20.90;61.50
19060;DHT22;9663;48.996;8.334;2023-07-02T06:25:30;21.00;61.60
19060;DHT22;9663;48.996;8.334;2023-07-02T06:27:56;21.10;61.70
19060;DHT22;9663;48.996;8.334;2023-07-02T06:30:24;21.10;61.60
19060;DHT22;9663;48.996;8.334;2023-07-02T06:32:50;21.20;61.50
19060;DHT22;9663;48.996;8.334;2023-07-02T06:35:16;21.30;61.30
19060;DHT22;9663;48.996;8.334;2023-07-02T06:37:42;21.30;61.00
19060;DHT22;9663;48.996;8.334;2023-07-02T06:40:07;21.40;61.20
19060;DHT22;9663;48.996;8.334;2023-07-02T06:42:33;21.40;60.90
19060;DHT22;9663;48.996;8.334;2023-07-02T06:45:01;21.40;60.60
19060;DHT22;9663;48.996;8.334;2023-07-02T06:47:28;21.50;60.60
19060;DHT22;9663;48.996;8.334;2023-07-02T06:49:53;21.60;60.60
19060;DHT22;9663;48.996;8.334;2023-07-02T06:52:19;21.60;60.30
19060;DHT22;9663;48.996;8.334;2023-07-02T06:54:45;21.70;61.20
19060;DHT22;9663;48.996;8.334;2023-07-02T06:57:12;21.80;60.00
19060;DHT22;9663;48.996;8.334;2023-07-02T06:59:38;21.80;59.90
19060;DHT22;9663;48.996;8.334;2023-07-02T07:02:04;21.90;59.70
19060;DHT22;9663;48.996;8.334;2023-07-02T07:04:30;21.90;59.30
19060;DHT22;9663;48.996;8.334;2023-07-02T07:06:55;22.00;59.20
19060;DHT22;9663;48.996;8.334;2023-07-02T07:09:21;22.00;59.30
19060;DHT22;9663;48.996;8.334;2023-07-02T07:11:47;22.10;59.20
19060;DHT22;9663;48.996;8.334;2023-07-02T07:14:13;22.10;59.00
19060;DHT22;9663;48.996;8.334;2023-07-02T07:16:39;22.20;59.00
19060;DHT22;9663;48.996;8.334;2023-07-02T07:19:05;22.20;58.90
19060;DHT22;9663;48.996;8.334;2023-07-02T07:21:31;22.30;58.70
19060;DHT22;9663;48.996;8.334;2023-07-02T07:23:57;22.40;58.60
19060;DHT22;9663;48.996;8.334;2023-07-02T07:26:22;22.40;58.00
19060;DHT22;9663;48.996;8.334;2023-07-02T07:28:48;22.40;58.00
19060;DHT22;9663;48.996;8.334;2023-07-02T07:31:14;22.40;58.00
19060;DHT22;9663;48.996;8.334;2023-07-02T07:33:40;22.40;57.80
19060;DHT22;9663;48.996;8.334;2023-07-02T07:36:06;22.40;57.80
19060;DHT22;9663;48.996;8.334;2023-07-02T07:38:32;22.40;57.80
19060;DHT22;9663;48.996;8.334;2023-07-02T07:40:57;22.40;57.80
19060;DHT22;9663;48.996;8.334;2023-07-02T07:43:23;22.50;57.50
19060;DHT22;9663;48.996;8.334;2023-07-02T07:45:49;22.50;57.40
19060;DHT22;9663;48.996;8.334;2023-07-02T07:48:15;22.50;57.60
19060;DHT22;9663;48.996;8.334;2023-07-02T07:50:40;22.50;57.80
19060;DHT22;9663;48.996;8.334;2023-07-02T07:53:06;22.60;57.20
19060;DHT22;9663;48.996;8.334;2023-07-02T07:55:31;22.70;57.10
19060;DHT22;9663;48.996;8.334;2023-07-02T07:57:57;22.70;57.10
19060;DHT22;9663;48.996;8.334;2023-07-02T08:00:23;22.70;57.20
19060;DHT22;9663;48.996;8.334;2023-07-02T08:02:49;22.80;57.30
19060;DHT22;9663;48.996;8.334;2023-07-02T08:05:17;22.90;57.10
19060;DHT22;9663;48.996;8.334;2023-07-02T08:07:43;23.00;57.10
19060;DHT22;9663;48.996;8.334;2023-07-02T08:10:09;23.10;57.20
19060;DHT22;9663;48.996;8.334;2023-07-02T08:12:35;23.30;57.10
19060;DHT22;9663;48.996;8.334;2023-07-02T08:15:01;23.50;57.10
19060;DHT22;9663;48.996;8.334;2023-07-02T08:17:27;23.50;56.20
19060;DHT22;9663;48.996;8.334;2023-07-02T08:19:52;23.60;56.00
19060;DHT22;9663;48.996;8.334;2023-07-02T08:22:18;23.70;56.00
19060;DHT22;9663;48.996;8.334;2023-07-02T08:24:44;23.80;56.00
19060;DHT22;9663;48.996;8.334;2023-07-02T08:27:10;23.80;55.60
19060;DHT22;9663;48.996;8.334;2023-07-02T08:29:39;23.80;55.30
19060;DHT22;9663;48.996;8.334;2023-07-02T08:32:04;23.80;55.20
19060;DHT22;9663;48.996;8.334;2023-07-02T08:34:30;23.80;54.90
19060;DHT22;9663;48.996;8.334;2023-07-02T08:36:56;23.80;54.90
19060;DHT22;9663;48.996;8.334;2023-07-02T08:39:22;23.80;55.20
19060;DHT22;9663;48.996;8.334;2023-07-02T08:41:48;23.80;55.30
19060;DHT22;9663;48.996;8.334;2023-07-02T08:44:16;23.80;55.10
19060;DHT22;9663;48.996;8.334;2023-07-02T08:46:45;23.90;55.20
19060;DHT22;9663;48.996;8.334;2023-07-02T08:49:16;24.00;55.30
19060;DHT22;9663;48.996;8.334;2023-07-02T08:51:45;24.00;54.70
19060;DHT22;9663;48.996;8.334;2023-07-02T08:54:11;24.00;54.40
19060;DHT22;9663;48.996;8.334;2023-07-02T08:56:38;24.00;54.60
19060;DHT22;9663;48.996;8.334;2023-07-02T08:59:07;24.00;54.20
19060;DHT22;9663;48.996;8.334;2023-07-02T09:01:47;24.00;54.40
19060;DHT22;9663;48.996;8.334;2023-07-02T09:04:22;24.10;53.80
19060;DHT22;9663;48.996;8.334;2023-07-02T09:07:12;24.20;54.20
19060;DHT22;9663;48.996;8.334;2023-07-02T09:09:47;24.30;54.60
19060;DHT22;9663;48.996;8.334;2023-07-02T09:12:24;24.50;53.60
19060;DHT22;9663;48.996;8.334;2023-07-02T09:15:00;24.50;53.30
19060;DHT22;9663;48.996;8.334;2023-07-02T09:17:30;24.60;53.20
19060;DHT22;9663;48.996;8.334;2023-07-02T09:19:59;24.60;53.20
19060;DHT22;9663;48.996;8.334;2023-07-02T09:22:30;24.60;53.20
19060;DHT22;9663;48.996;8.334;2023-07-02T09:24:58;24.60;53.40
19060;DHT22;9663;48.996;8.334;2023-07-02T09:27:38;24.60;53.20
19060;DHT22;9663;48.996;8.334;2023-07-02T09:30:12;24.60;52.20
19060;DHT22;9663;48.996;8.334;2023-07-02T09:32:44;24.50;52.30
19060;DHT22;9663;48.996;8.334;2023-07-02T09:35:19;24.50;52.60
19060;DHT22;9663;48.996;8.334;2023-07-02T09:37:49;24.40;52.80
19060;DHT22;9663;48.996;8.334;2023-07-02T09:40:15;24.30;52.80
19060;DHT22;9663;48.996;8.334;2023-07-02T09:42:47;24.30;52.80
19060;DHT22;9663;48.996;8.334;2023-07-02T09:45:17;24.40;53.10
19060;DHT22;9663;48.996;8.334;2023-07-02T09:47:49;24.30;52.40
19060;DHT22;9663;48.996;8.334;2023-07-02T09:50:18;24.50;52.50
19060;DHT22;9663;48.996;8.334;2023-07-02T09:52:46;24.60;52.90
19060;DHT22;9663;48.996;8.334;2023-07-02T09:55:14;24.70;52.60
19060;DHT22;9663;48.996;8.334;2023-07-02T09:57:40;24.80;52.30
19060;DHT22;9663;48.996;8.334;2023-07-02T10:00:09;24.90;52.00
19060;DHT22;9663;48.996;8.334;2023-07-02T10:02:35;25.00;52.00
19060;DHT22;9663;48.996;8.334;2023-07-02T10:05:01;25.00;52.20
19060;DHT22;9663;48.996;8.334;2023-07-02T10:07:31;25.10;51.10
19060;DHT22;9663;48.996;8.334;2023-07-02T10:10:00;25.20;51.10
19060;DHT22;9663;48.996;8.334;2023-07-02T10:12:28;25.40;51.10
19060;DHT22;9663;48.996;8.334;2023-07-02T10:14:56;25.60;50.80
19060;DHT22;9663;48.996;8.334;2023-07-02T10:17:30;25.70;50.60
19060;DHT22;9663;48.996;8.334;2023-07-02T10:20:08;25.90;50.10
19060;DHT22;9663;48.996;8.334;2023-07-02T10:22:43;26.00;49.60
19060;DHT22;9663;48.996;8.334;2023-07-02T10:25:10;26.10;49.30
19060;DHT22;9663;48.996;8.334;2023-07-02T10:27:39;26.30;50.10
19060;DHT22;9663;48.996;8.334;2023-07-02T10:30:08;26.40;49.90
19060;DHT22;9663;48.996;8.334;2023-07-02T10:32:36;26.50;49.60
19060;DHT22;9663;48.996;8.334;2023-07-02T10:35:23;26.60;48.70
19060;DHT22;9663;48.996;8.334;2023-07-02T10:37:51;26.60;47.90
19060;DHT22;9663;48.996;8.334;2023-07-02T10:40:16;26.70;48.70
19060;DHT22;9663;48.996;8.334;2023-07-02T10:42:50;26.70;48.90
19060;DHT22;9663;48.996;8.334;2023-07-02T10:45:16;26.70;48.70
19060;DHT22;9663;48.996;8.334;2023-07-02T10:47:42;26.80;49.10
19060;DHT22;9663;48.996;8.334;2023-07-02T10:50:21;26.90;49.10
19060;DHT22;9663;48.996;8.334;2023-07-02T10:52:49;27.00;47.90
19060;DHT22;9663;48.996;8.334;2023-07-02T10:55:24;27.10;48.10
19060;DHT22;9663;48.996;8.334;2023-07-02T10:58:06;27.20;47.50
19060;DHT22;9663;48.996;8.334;2023-07-02T11:00:32;27.20;47.10
19060;DHT22;9663;48.996;8.334;2023-07-02T11:02:59;27.30;48.00
19060;DHT22;9663;48.996;8.334;2023-07-02T11:05:25;27.40;47.80
19060;DHT22;9663;48.996;8.334;2023-07-02T11:07:51;27.50;47.60
19060;DHT22;9663;48.996;8.334;2023-07-02T11:10:23;27.60;47.10
19060;DHT22;9663;48.996;8.334;2023-07-02T11:12:49;27.60;47.10
19060;DHT22;9663;48.996;8.334;2023-07-02T11:15:16;27.60;47.00
19060;DHT22;9663;48.996;8.334;2023-07-02T11:17:45;27.60;46.70
19060;DHT22;9663;48.996;8.334;2023-07-02T11:20:13;27.60;46.50
19060;DHT22;9663;48.996;8.334;2023-07-02T11:22:40;27.50;46.70
19060;DHT22;9663;48.996;8.334;2023-07-02T11:25:19;27.50;46.70
19060;DHT22;9663;48.996;8.334;2023-07-02T11:27:45;27.60;46.50
19060;DHT22;9663;48.996;8.334;2023-07-02T11:30:12;27.70;46.80
19060;DHT22;9663;48.996;8.334;2023-07-02T11:32:53;27.70;46.50
19060;DHT22;9663;48.996;8.334;2023-07-02T11:35:20;27.70;45.40
19060;DHT22;9663;48.996;8.334;2023-07-02T11:37:47;28.00;47.10
19060;DHT22;9663;48.996;8.334;2023-07-02T11:40:14;28.40;47.30
19060;DHT22;9663;48.996;8.334;2023-07-02T11:42:42;28.90;47.50
19060;DHT22;9663;48.996;8.334;2023-07-02T11:45:09;29.50;47.40
19060;DHT22;9663;48.996;8.334;2023-07-02T11:47:35;30.10;47.20
19060;DHT22;9663;48.996;8.334;2023-07-02T11:50:01;30.60;45.30
19060;DHT22;9663;48.996;8.334;2023-07-02T11:52:27;31.00;44.40
19060;DHT22;9663;48.996;8.334;2023-07-02T11:54:52;31.20;44.10
19060;DHT22;9663;48.996;8.334;2023-07-02T11:57:18;31.50;43.50
19060;DHT22;9663;48.996;8.334;2023-07-02T11:59:44;31.80;43.40
19060;DHT22;9663;48.996;8.334;2023-07-02T12:02:10;31.90;42.30
19060;DHT22;9663;48.996;8.334;2023-07-02T12:04:36;32.00;41.70
19060;DHT22;9663;48.996;8.334;2023-07-02T12:07:01;32.00;41.30
19060;DHT22;9663;48.996;8.334;2023-07-02T12:09:29;32.00;41.60
19060;DHT22;9663;48.996;8.334;2023-07-02T12:11:55;32.00;40.90
19060;DHT22;9663;48.996;8.334;2023-07-02T12:14:20;31.80;40.80
19060;DHT22;9663;48.996;8.334;2023-07-02T12:16:46;31.60;40.70
19060;DHT22;9663;48.996;8.334;2023-07-02T12:19:11;31.40;41.10
19060;DHT22;9663;48.996;8.334;2023-07-02T12:21:37;31.40;41.40
19060;DHT22;9663;48.996;8.334;2023-07-02T12:24:03;31.70;41.10
19060;DHT22;9663;48.996;8.334;2023-07-02T12:26:34;31.90;40.60
19060;DHT22;9663;48.996;8.334;2023-07-02T12:29:00;32.30;41.70
19060;DHT22;9663;48.996;8.334;2023-07-02T12:31:26;32.60;40.80
19060;DHT22;9663;48.996;8.334;2023-07-02T12:33:51;33.00;40.30
19060;DHT22;9663;48.996;8.334;2023-07-02T12:36:17;33.20;38.80
19060;DHT22;9663;48.996;8.334;2023-07-02T12:38:43;33.10;38.20
19060;DHT22;9663;48.996;8.334;2023-07-02T12:41:08;33.00;37.80
19060;DHT22;9663;48.996;8.334;2023-07-02T12:43:34;33.10;38.60
19060;DHT22;9663;48.996;8.334;2023-07-02T12:45:59;33.30;38.80
19060;DHT22;9663;48.996;8.334;2023-07-02T12:48:25;33.60;39.00
19060;DHT22;9663;48.996;8.334;2023-07-02T12:50:58;33.90;38.30
19060;DHT22;9663;48.996;8.334;2023-07-02T12:53:25;34.00;36.10
19060;DHT22;9663;48.996;8.334;2023-07-02T12:55:52;34.00;36.80
19060;DHT22;9663;48.996;8.334;2023-07-02T12:58:18;33.90;35.90
19060;DHT22;9663;48.996;8.334;2023-07-02T13:00:44;34.10;36.60
19060;DHT22;9663;48.996;8.334;2023-07-02T13:03:12;34.10;36.50
19060;DHT22;9663;48.996;8.334;2023-07-02T13:05:38;34.20;36.50
19060;DHT22;9663;48.996;8.334;2023-07-02T13:08:04;34.40;36.20
19060;DHT22;9663;48.996;8.334;2023-07-02T13:10:32;34.60;36.10
19060;DHT22;9663;48.996;8.334;2023-07-02T13:12:59;34.80;35.80
19060;DHT22;9663;48.996;8.334;2023-07-02T13:15:25;35.00;35.20
19060;DHT22;9663;48.996;8.334;2023-07-02T13:17:50;35.10;34.30
19060;DHT22;9663;48.996;8.334;2023-07-02T13:20:16;35.00;34.40
19060;DHT22;9663;48.996;8.334;2023-07-02T13:22:42;35.10;34.40
19060;DHT22;9663;48.996;8.334;2023-07-02T13:25:08;35.20;33.70
19060;DHT22;9663;48.996;8.334;2023-07-02T13:27:34;35.20;33.60
19060;DHT22;9663;48.996;8.334;2023-07-02T13:29:59;35.20;33.60
19060;DHT22;9663;48.996;8.334;2023-07-02T13:32:25;35.20;32.90
19060;DHT22;9663;48.996;8.334;2023-07-02T13:34:51;35.20;33.80
19060;DHT22;9663;48.996;8.334;2023-07-02T13:37:17;35.20;33.20
19060;DHT22;9663;48.996;8.334;2023-07-02T13:39:47;35.30;32.50
19060;DHT22;9663;48.996;8.334;2023-07-02T13:42:14;35.20;30.70
19060;DHT22;9663;48.996;8.334;2023-07-02T13:44:41;35.20;31.40
19060;DHT22;9663;48.996;8.334;2023-07-02T13:47:08;35.10;31.40
19060;DHT22;9663;48.996;8.334;2023-07-02T13:49:34;35.10;31.00
19060;DHT22;9663;48.996;8.334;2023-07-02T13:52:00;35.00;31.20
19060;DHT22;9663;48.996;8.334;2023-07-02T13:54:25;35.00;31.60
19060;DHT22;9663;48.996;8.334;2023-07-02T13:56:52;34.90;30.60
19060;DHT22;9663;48.996;8.334;2023-07-02T13:59:19;34.80;30.60
19060;DHT22;9663;48.996;8.334;2023-07-02T14:01:47;34.60;30.90
19060;DHT22;9663;48.996;8.334;2023-07-02T14:04:14;34.50;30.90
19060;DHT22;9663;48.996;8.334;2023-07-02T14:06:41;34.30;30.50
19060;DHT22;9663;48.996;8.334;2023-07-02T14:09:08;34.10;30.80
19060;DHT22;9663;48.996;8.334;2023-07-02T14:11:36;33.90;30.30
19060;DHT22;9663;48.996;8.334;2023-07-02T14:14:04;33.70;30.70
19060;DHT22;9663;48.996;8.334;2023-07-02T14:16:30;33.60;30.90
19060;DHT22;9663;48.996;8.334;2023-07-02T14:18:57;33.60;31.00
19060;DHT22;9663;48.996;8.334;2023-07-02T14:21:26;33.60;31.00
19060;DHT22;9663;48.996;8.334;2023-07-02T14:23:52;33.40;30.10
19060;DHT22;9663;48.996;8.334;2023-07-02T14:26:18;33.40;30.90
19060;DHT22;9663;48.996;8.334;2023-07-02T14:28:44;33.40;30.80
19060;DHT22;9663;48.996;8.334;2023-07-02T14:31:09;33.40;30.00
19060;DHT22;9663;48.996;8.334;2023-07-02T14:33:37;33.40;30.50
19060;DHT22;9663;48.996;8.334;2023-07-02T14:36:04;33.60;30.40
19060;DHT22;9663;48.996;8.334;2023-07-02T14:38:31;33.80;30.40
19060;DHT22;9663;48.996;8.334;2023-07-02T14:40:58;34.00;30.60
19060;DHT22;9663;48.996;8.334;2023-07-02T14:43:26;34.40;30.80
19060;DHT22;9663;48.996;8.334;2023-07-02T14:45:56;34.70;30.40
19060;DHT22;9663;48.996;8.334;2023-07-02T14:48:23;34.90;29.60
19060;DHT22;9663;48.996;8.334;2023-07-02T14:50:57;35.00;29.60
19060;DHT22;9663;48.996;8.334;2023-07-02T14:53:26;35.00;28.80
19060;DHT22;9663;48.996;8.334;2023-07-02T14:55:57;35.00;29.10
19060;DHT22;9663;48.996;8.334;2023-07-02T14:58:25;35.10;28.70
19060;DHT22;9663;48.996;8.334;2023-07-02T15:00:54;35.20;29.30
19060;DHT22;9663;48.996;8.334;2023-07-02T15:03:22;35.50;29.20
19060;DHT22;9663;48.996;8.334;2023-07-02T15:05:50;35.70;28.80
19060;DHT22;9663;48.996;8.334;2023-07-02T15:08:17;35.90;28.60
19060;DHT22;9663;48.996;8.334;2023-07-02T15:10:48;35.90;27.60
19060;DHT22;9663;48.996;8.334;2023-07-02T15:13:16;36.10;27.80
19060;DHT22;9663;48.996;8.334;2023-07-02T15:15:43;36.30;28.30
19060;DHT22;9663;48.996;8.334;2023-07-02T15:18:10;36.40;28.50
19060;DHT22;9663;48.996;8.334;2023-07-02T15:20:36;36.70;28.10
19060;DHT22;9663;48.996;8.334;2023-07-02T15:23:02;37.00;28.00
19060;DHT22;9663;48.996;8.334;2023-07-02T15:25:30;37.10;27.60
19060;DHT22;9663;48.996;8.334;2023-07-02T15:27:57;37.30;27.20
19060;DHT22;9663;48.996;8.334;2023-07-02T15:30:22;37.40;27.10
19060;DHT22;9663;48.996;8.334;2023-07-02T15:32:48;37.40;26.90
19060;DHT22;9663;48.996;8.334;2023-07-02T15:35:14;37.40;26.80
19060;DHT22;9663;48.996;8.334;2023-07-02T15:37:39;37.30;25.40
19060;DHT22;9663;48.996;8.334;2023-07-02T15:40:07;37.40;26.20
19060;DHT22;9663;48.996;8.334;2023-07-02T15:42:34;37.50;26.20
19060;DHT22;9663;48.996;8.334;2023-07-02T15:45:00;37.50;26.30
19060;DHT22;9663;48.996;8.334;2023-07-02T15:47:26;37.50;26.10
19060;DHT22;9663;48.996;8.334;2023-07-02T15:49:52;37.50;25.60